Time;durP1;ratioP1;P1;durP2;ratioP2;P2;SDS_P1;SDS_P2;PMS_P1;PMS_P2;Temp;Humidity;BMP_temperature;BMP_pressure;BME280_temperature;BME280_humidity;BME280_pressure;Samples;Min_cycle;Max_cycle;Signal;HPM_P1;HPM_P2
2023/09/23 00:00:53;;;;;;;10.40;4.60;;;;;;;18.88;83.15;95993.40;111520;1244;24237;-76
2023/09/23 00:03:38;;;;;;;9.90;5.50;;;;;;;18.88;83.06;95995.86;111458;1244;25396;-76
2023/09/23 00:06:08;;;;;;;10.70;4.60;;;;;;;18.88;83.08;95991.92;111467;1244;22611;-76
2023/09/23 00:08:37;;;;;;;8.20;4.40;;;;;;;18.89;83.15;95986.88;111539;1244;25266;-76
2023/09/23 00:11:06;;;;;;;11.30;5.40;;;;;;;18.90;83.07;95983.45;111479;1244;22499;-77
2023/09/23 00:13:35;;;;;;;11.60;4.90;;;;;;;18.90;83.02;95984.85;111471;1244;23844;-76
2023/09/23 00:16:08;;;;;;;11.40;5.00;;;;;;;18.89;83.00;95992.56;111511;1244;25416;-76
2023/09/23 00:18:38;;;;;;;9.70;5.20;;;;;;;18.86;83.11;95996.11;111535;1244;22930;-76
2023/09/23 00:21:08;;;;;;;7.60;4.50;;;;;;;18.82;83.11;95991.31;111492;1244;22630;-76
2023/09/23 00:23:37;;;;;;;9.10;5.00;;;;;;;18.81;83.26;95989.36;111481;1244;23712;-76
2023/09/23 00:26:08;;;;;;;9.40;4.60;;;;;;;18.81;83.25;95983.29;111503;1244;22746;-76
2023/09/23 00:28:36;;;;;;;7.10;4.20;;;;;;;18.80;83.41;95972.77;111550;1244;25238;-76
2023/09/23 00:31:09;;;;;;;8.90;4.20;;;;;;;18.78;83.49;95964.50;111546;1244;22485;-76
2023/09/23 00:33:40;;;;;;;7.80;3.70;;;;;;;18.76;83.67;95952.35;111535;1244;22927;-76
2023/09/23 00:36:09;;;;;;;7.80;4.10;;;;;;;18.74;83.81;95950.16;111601;1244;22954;-77
2023/09/23 00:38:40;;;;;;;7.90;3.90;;;;;;;18.73;83.89;95946.81;111539;1244;22965;-77
2023/09/23 00:41:08;;;;;;;7.00;3.90;;;;;;;18.70;84.16;95938.29;111510;1244;22514;-77
2023/09/23 00:43:38;;;;;;;6.30;3.80;;;;;;;18.66;84.27;95932.62;111490;1244;22570;-76
2023/09/23 00:46:08;;;;;;;7.90;4.00;;;;;;;18.59;84.43;95926.36;111537;1244;22669;-77
2023/09/23 00:48:39;;;;;;;8.40;3.80;;;;;;;18.57;84.57;95933.95;111621;1244;25506;-77
2023/09/23 00:51:07;;;;;;;6.10;3.90;;;;;;;18.53;84.88;95937.31;111539;1244;22515;-77
2023/09/23 00:53:39;;;;;;;6.50;3.80;;;;;;;18.52;85.54;95939.73;111527;1244;22468;-76
2023/09/23 00:56:09;;;;;;;7.70;4.10;;;;;;;18.50;85.60;95933.02;111604;1244;23283;-77
2023/09/23 00:58:38;;;;;;;8.30;4.30;;;;;;;18.46;85.99;95931.86;111619;1244;23235;-76
2023/09/23 01:01:07;;;;;;;7.40;3.90;;;;;;;18.46;86.44;95921.52;111525;1244;22524;-76
2023/09/23 01:03:39;;;;;;;5.30;3.80;;;;;;;18.48;86.55;95919.23;111507;1244;23851;-76
2023/09/23 01:06:15;;;;;;;9.80;3.90;;;;;;;18.52;86.73;95910.45;111624;1244;22498;-76
2023/09/23 01:08:47;;;;;;;8.10;3.70;;;;;;;18.57;86.50;95912.11;111564;1244;22485;-76
2023/09/23 01:11:17;;;;;;;7.00;3.70;;;;;;;18.60;86.27;95908.98;111511;1244;22547;-76
2023/09/23 01:13:50;;;;;;;10.50;4.10;;;;;;;18.65;86.19;95910.95;111463;1244;22507;-76
2023/09/23 01:16:21;;;;;;;6.40;3.90;;;;;;;18.68;86.07;95909.63;111553;1244;22491;-76
2023/09/23 01:18:50;;;;;;;8.50;3.90;;;;;;;18.69;85.88;95906.44;111516;1244;22492;-76
2023/09/23 01:21:18;;;;;;;7.00;3.10;;;;;;;18.69;85.78;95906.75;111542;1241;23182;-76
2023/09/23 01:23:47;;;;;;;8.20;3.40;;;;;;;18.69;85.70;95906.28;111455;1244;24634;-76
2023/09/23 01:26:16;;;;;;;6.00;3.30;;;;;;;18.67;85.63;95909.09;111554;1244;23914;-76
2023/09/23 01:28:47;;;;;;;5.50;3.70;;;;;;;18.67;85.59;95916.21;111516;1244;23715;-76
2023/09/23 01:31:17;;;;;;;5.50;3.20;;;;;;;18.66;85.46;95916.34;111570;1244;25051;-76
2023/09/23 01:33:47;;;;;;;6.40;3.50;;;;;;;18.64;85.48;95918.08;111512;1244;22528;-76
2023/09/23 01:36:17;;;;;;;8.50;3.70;;;;;;;18.62;85.53;95918.16;111576;1244;25110;-76
2023/09/23 01:38:50;;;;;;;8.70;3.70;;;;;;;18.59;85.49;95917.93;111549;1244;22511;-76
2023/09/23 01:41:21;;;;;;;5.50;3.40;;;;;;;18.57;85.55;95922.60;111546;1244;22506;-76
2023/09/23 01:43:50;;;;;;;10.10;4.10;;;;;;;18.52;85.51;95921.88;111503;1244;25232;-76
2023/09/23 01:46:18;;;;;;;8.60;3.80;;;;;;;18.47;85.55;95928.12;111537;1244;26644;-77
2023/09/23 01:48:46;;;;;;;7.90;3.80;;;;;;;18.40;85.53;95931.84;111549;1244;23722;-77
2023/09/23 01:51:17;;;;;;;7.40;4.20;;;;;;;18.30;85.65;95930.90;111529;1244;22551;-76
2023/09/23 01:53:46;;;;;;;6.50;3.90;;;;;;;18.19;85.78;95931.16;111496;1244;22485;-76
2023/09/23 01:56:15;;;;;;;10.00;4.50;;;;;;;18.09;86.03;95930.73;111575;1244;22503;-76
2023/09/23 01:58:44;;;;;;;7.60;4.10;;;;;;;18.02;86.36;95924.64;111538;1244;22688;-76
2023/09/23 02:01:14;;;;;;;6.70;3.90;;;;;;;17.96;86.63;95920.80;111510;1244;22998;-77
2023/09/23 02:03:43;;;;;;;6.20;4.20;;;;;;;17.91;86.76;95917.38;111505;1244;24175;-76
2023/09/23 02:06:17;;;;;;;6.40;3.60;;;;;;;17.87;86.96;95929.34;111499;1244;22499;-76
2023/09/23 02:08:45;;;;;;;7.90;4.00;;;;;;;17.87;87.16;95928.27;111526;1244;22499;-76
2023/09/23 02:11:16;;;;;;;9.30;4.50;;;;;;;17.79;87.08;95930.67;111541;1244;22512;-76
2023/09/23 02:13:47;;;;;;;7.90;3.90;;;;;;;17.73;87.45;95930.04;111490;1244;22744;-76
2023/09/23 02:16:18;;;;;;;6.80;3.40;;;;;;;17.70;87.51;95929.67;111545;1244;22525;-76
2023/09/23 02:18:50;;;;;;;6.90;3.50;;;;;;;17.72;87.76;95935.45;111517;1244;22485;-76
2023/09/23 02:21:21;;;;;;;7.00;3.60;;;;;;;17.74;87.70;95941.27;111535;1228;22547;-76
2023/09/23 02:23:50;;;;;;;6.30;3.80;;;;;;;17.70;87.67;95939.30;111500;1244;22617;-76
2023/09/23 02:26:21;;;;;;;9.50;4.00;;;;;;;17.64;87.91;95937.60;111526;1244;22512;-76
2023/09/23 02:28:49;;;;;;;7.20;3.60;;;;;;;17.62;87.94;95943.89;111490;1244;22470;-76
2023/09/23 02:31:17;;;;;;;9.60;4.00;;;;;;;17.58;88.18;95946.80;111515;1244;24287;-76
2023/09/23 02:33:46;;;;;;;6.50;4.10;;;;;;;17.56;88.43;95957.10;111514;1244;25237;-76
2023/09/23 02:36:17;;;;;;;8.30;4.10;;;;;;;17.55;88.45;95959.59;111522;1244;24365;-76
2023/09/23 02:38:47;;;;;;;7.50;4.10;;;;;;;17.50;88.78;95964.30;111601;1244;22508;-77
2023/09/23 02:41:16;;;;;;;7.80;4.00;;;;;;;17.46;89.28;95965.41;111487;1244;22503;-76
2023/09/23 02:43:47;;;;;;;7.50;4.30;;;;;;;17.45;89.49;95965.13;111510;1244;22498;-76
2023/09/23 02:46:16;;;;;;;10.00;4.60;;;;;;;17.46;89.78;95967.70;111538;1244;25276;-76
2023/09/23 02:48:44;;;;;;;5.00;3.60;;;;;;;17.48;89.94;95971.67;111494;1244;22514;-77
2023/09/23 02:51:14;;;;;;;9.40;4.20;;;;;;;17.53;90.01;95970.42;111512;1244;22502;-77
2023/09/23 02:53:47;;;;;;;7.90;3.90;;;;;;;17.52;90.07;95965.19;111471;1244;22507;-76
2023/09/23 02:56:16;;;;;;;5.00;3.70;;;;;;;17.50;90.12;95970.80;111472;1244;22548;-76
2023/09/23 02:58:44;;;;;;;6.80;3.50;;;;;;;17.48;90.18;95975.95;111439;1244;24324;-76
2023/09/23 03:01:15;;;;;;;9.00;4.60;;;;;;;17.46;90.40;95979.95;111486;1244;23786;-76
2023/09/23 03:03:46;;;;;;;6.10;3.70;;;;;;;17.48;90.61;95974.11;111443;1244;22540;-76
2023/09/23 03:06:16;;;;;;;7.90;4.00;;;;;;;17.49;90.79;95972.39;111487;1244;24996;-77
2023/09/23 03:08:48;;;;;;;7.10;4.20;;;;;;;17.49;90.91;95967.92;111463;1235;22509;-76
2023/09/23 03:11:18;;;;;;;8.30;3.90;;;;;;;17.47;91.09;95972.48;111603;1244;22518;-77
2023/09/23 03:13:49;;;;;;;7.30;3.90;;;;;;;17.44;91.15;95983.33;111448;1244;22501;-76
2023/09/23 03:16:28;;;;;;;8.50;3.90;;;;;;;17.44;91.34;95980.24;111484;1244;27766;-77
2023/09/23 03:19:10;;;;;;;7.20;3.50;;;;;;;17.47;91.51;95984.19;111484;1244;22576;-77
2023/09/23 03:21:41;;;;;;;7.00;3.60;;;;;;;17.49;91.43;95983.09;111510;1244;25199;-77
2023/09/23 03:24:10;;;;;;;;;;;;;;;17.51;91.43;95981.00;111529;1244;22781;-77
2023/09/23 03:26:40;;;;;;;7.70;3.60;;;;;;;17.53;91.49;95978.60;111461;1244;22496;-77
2023/09/23 03:29:09;;;;;;;8.70;3.60;;;;;;;17.53;91.35;95974.32;111447;1244;22876;-77
2023/09/23 03:31:37;;;;;;;9.70;4.30;;;;;;;17.52;91.33;95983.88;111462;1244;23755;-77
2023/09/23 03:34:05;;;;;;;7.50;3.90;;;;;;;17.52;91.25;95988.92;111447;1234;22525;-76
2023/09/23 03:36:34;;;;;;;7.50;3.90;;;;;;;17.50;91.02;95996.98;111491;1244;24916;-76
2023/09/23 03:39:03;;;;;;;7.10;3.30;;;;;;;17.38;90.80;96003.19;111468;1244;22643;-76
2023/09/23 03:41:31;;;;;;;;;;;;;;;17.25;90.99;96008.75;111487;1244;23705;-76
2023/09/23 03:44:01;;;;;;;7.00;3.50;;;;;;;17.17;91.30;96006.86;111454;1244;22511;-76
2023/09/23 03:46:33;;;;;;;4.70;3.60;;;;;;;17.16;91.67;96012.98;111442;1244;24189;-76
2023/09/23 03:49:02;;;;;;;6.70;4.00;;;;;;;17.19;91.89;96023.67;111515;1244;22514;-76
2023/09/23 03:51:31;;;;;;;5.60;3.70;;;;;;;17.23;91.91;96025.98;111472;1240;22600;-76
2023/09/23 03:53:59;;;;;;;7.10;3.80;;;;;;;17.25;91.91;96024.52;111465;1244;22647;-76
2023/09/23 03:56:28;;;;;;;9.70;4.30;;;;;;;17.21;91.64;96015.52;111491;1244;23190;-76
2023/09/23 03:58:56;;;;;;;6.80;3.80;;;;;;;17.17;91.81;96022.80;111486;1244;22499;-76
2023/09/23 04:01:24;;;;;;;8.10;3.70;;;;;;;17.16;92.01;96031.04;111475;1244;22527;-77
2023/09/23 04:03:53;;;;;;;9.00;3.80;;;;;;;17.14;92.00;96034.35;111466;1244;22557;-76
2023/09/23 04:06:23;;;;;;;5.60;3.80;;;;;;;17.01;91.90;96037.40;111473;1244;23854;-77
2023/09/23 04:08:52;;;;;;;7.40;3.70;;;;;;;16.93;92.29;96044.25;111481;1244;22502;-77
2023/09/23 04:11:21;;;;;;;7.60;4.20;;;;;;;16.93;92.73;96052.89;111480;1244;22535;-77
2023/09/23 04:13:50;;;;;;;9.00;4.00;;;;;;;16.94;93.00;96062.64;111437;1244;23812;-77
2023/09/23 04:16:19;;;;;;;6.20;4.30;;;;;;;16.96;93.31;96066.30;111462;1244;22509;-77
2023/09/23 04:18:47;;;;;;;10.50;5.20;;;;;;;16.98;93.55;96063.37;111458;1244;22502;-76
2023/09/23 04:21:17;;;;;;;9.80;5.80;;;;;;;16.99;93.84;96058.65;111447;1244;23301;-76
2023/09/23 04:23:46;;;;;;;9.70;6.30;;;;;;;17.04;94.07;96057.83;111463;1244;25086;-76
2023/09/23 04:26:15;;;;;;;9.00;5.80;;;;;;;17.05;94.15;96053.66;111460;1232;22630;-76
2023/09/23 04:28:48;;;;;;;10.00;5.60;;;;;;;17.06;94.11;96055.61;111470;1244;22507;-77
2023/09/23 04:31:18;;;;;;;10.20;5.90;;;;;;;17.07;94.10;96057.55;111450;1231;22587;-76
2023/09/23 04:33:47;;;;;;;8.70;5.10;;;;;;;17.10;94.23;96054.91;111474;1244;22526;-76
2023/09/23 04:36:16;;;;;;;6.90;4.90;;;;;;;17.16;94.25;96059.69;111646;1244;22507;-77
2023/09/23 04:38:44;;;;;;;7.10;5.40;;;;;;;17.18;94.11;96056.00;111466;1237;25260;-76
2023/09/23 04:41:17;;;;;;;8.30;5.40;;;;;;;17.18;94.07;96055.02;111500;1244;24151;-76
2023/09/23 04:43:45;;;;;;;9.80;4.70;;;;;;;17.19;94.03;96058.18;111437;1244;24191;-76
2023/09/23 04:46:15;;;;;;;8.10;4.90;;;;;;;17.17;94.08;96058.52;111487;1244;25992;-77
2023/09/23 04:48:43;;;;;;;;;;;;;;;17.13;94.09;96057.98;111476;1244;22746;-76
2023/09/23 04:51:12;;;;;;;8.30;4.90;;;;;;;17.08;94.10;96059.11;111451;1244;22502;-76
2023/09/23 04:53:40;;;;;;;11.40;6.10;;;;;;;17.06;94.31;96057.61;111457;1244;22536;-76
2023/09/23 04:56:12;;;;;;;7.40;6.10;;;;;;;17.05;94.42;96057.19;111458;1244;23862;-76
2023/09/23 04:58:41;;;;;;;10.40;7.10;;;;;;;17.09;94.71;96056.39;111536;1244;22524;-76
2023/09/23 05:01:15;;;;;;;9.90;7.20;;;;;;;17.10;94.73;96063.32;111484;1244;23941;-77
2023/09/23 05:03:44;;;;;;;11.70;6.70;;;;;;;17.06;94.84;96066.17;111430;1244;24971;-76
2023/09/23 05:06:12;;;;;;;9.40;6.30;;;;;;;17.04;95.05;96069.48;111472;1244;23685;-77
2023/09/23 05:08:41;;;;;;;9.80;6.70;;;;;;;17.05;95.31;96070.20;111468;1244;22522;-76
2023/09/23 05:11:11;;;;;;;9.10;7.10;;;;;;;17.07;95.37;96070.96;111438;1244;22485;-76
2023/09/23 05:13:40;;;;;;;8.80;6.70;;;;;;;17.04;95.58;96068.80;111410;1244;23713;-76
2023/09/23 05:16:10;;;;;;;9.40;7.00;;;;;;;17.03;95.89;96070.28;111500;1244;22524;-77
2023/09/23 05:18:39;;;;;;;9.50;6.80;;;;;;;17.03;96.15;96076.01;111462;1244;22486;-76
2023/09/23 05:21:09;;;;;;;13.40;9.50;;;;;;;17.00;96.38;96081.20;111550;1244;22513;-76
2023/09/23 05:23:37;;;;;;;11.70;7.60;;;;;;;17.01;96.64;96086.42;111553;1244;22523;-76
2023/09/23 05:26:07;;;;;;;10.30;8.00;;;;;;;17.04;96.70;96092.30;111457;1244;22519;-76
2023/09/23 05:28:35;;;;;;;10.70;8.90;;;;;;;17.07;96.71;96092.45;111449;1244;25260;-76
2023/09/23 05:31:04;;;;;;;11.60;8.10;;;;;;;17.12;96.89;96097.30;111444;1244;22646;-76
2023/09/23 05:33:32;;;;;;;12.80;9.30;;;;;;;17.17;96.91;96099.45;111427;1244;22503;-76
2023/09/23 05:36:04;;;;;;;15.60;8.50;;;;;;;17.19;97.11;96103.09;111438;1244;22502;-76
2023/09/23 05:38:36;;;;;;;13.00;8.80;;;;;;;17.19;97.23;96101.73;111463;1244;22504;-76
2023/09/23 05:41:04;;;;;;;11.60;8.00;;;;;;;17.18;97.20;96103.08;111502;1244;22532;-76
2023/09/23 05:43:33;;;;;;;10.00;8.00;;;;;;;17.16;97.49;96109.77;111409;1244;22499;-76
2023/09/23 05:46:06;;;;;;;11.20;7.60;;;;;;;17.17;97.53;96106.01;111417;1244;22532;-77
2023/09/23 05:48:35;;;;;;;12.50;8.80;;;;;;;17.16;97.62;96104.44;111470;1244;22557;-76
2023/09/23 05:51:05;;;;;;;11.20;8.10;;;;;;;17.14;97.61;96103.16;111397;1244;25403;-76
2023/09/23 05:53:34;;;;;;;12.30;9.60;;;;;;;17.16;97.88;96106.92;111434;1244;26521;-76
2023/09/23 05:56:03;;;;;;;14.20;9.60;;;;;;;17.19;98.02;96107.09;111435;1244;24233;-76
2023/09/23 05:58:35;;;;;;;14.00;9.90;;;;;;;17.22;98.13;96108.33;111445;1244;22509;-77
2023/09/23 06:01:03;;;;;;;16.70;10.80;;;;;;;17.25;98.43;96111.55;111444;1244;22485;-76
2023/09/23 06:03:32;;;;;;;16.30;11.90;;;;;;;17.26;98.47;96115.95;111457;1244;25375;-76
2023/09/23 06:06:03;;;;;;;15.40;12.30;;;;;;;17.24;98.44;96116.56;111436;1244;23822;-77
2023/09/23 06:08:32;;;;;;;15.90;12.00;;;;;;;17.21;98.47;96124.54;111466;1244;22649;-76
2023/09/23 06:11:04;;;;;;;15.80;12.60;;;;;;;17.20;98.69;96136.73;111434;1244;22536;-75
2023/09/23 06:13:34;;;;;;;16.80;13.60;;;;;;;17.21;98.99;96144.29;111435;1244;22495;-76
2023/09/23 06:16:04;;;;;;;25.50;15.80;;;;;;;17.21;99.12;96150.09;111445;1244;22497;-76
2023/09/23 06:18:33;;;;;;;21.60;15.90;;;;;;;17.18;99.21;96154.73;111537;1244;22566;-76
2023/09/23 06:21:04;;;;;;;23.60;18.50;;;;;;;17.18;99.44;96162.10;111418;1244;24183;-76
2023/09/23 06:23:33;;;;;;;21.40;16.60;;;;;;;17.20;99.68;96173.42;111407;1244;22502;-76
2023/09/23 06:26:05;;;;;;;26.70;23.20;;;;;;;17.22;99.73;96179.96;111412;1244;24914;-76
2023/09/23 06:28:35;;;;;;;25.50;21.10;;;;;;;17.10;99.21;96186.29;111424;1244;22558;-76
2023/09/23 06:31:07;;;;;;;25.20;21.60;;;;;;;16.99;99.36;96192.46;111424;1244;25416;-76
2023/09/23 06:33:35;;;;;;;27.30;22.90;;;;;;;16.87;99.50;96187.94;111396;1244;22524;-76
2023/09/23 06:36:05;;;;;;;26.60;22.00;;;;;;;16.74;99.52;96190.15;111399;1244;22484;-76
2023/09/23 06:38:34;;;;;;;27.50;22.80;;;;;;;16.63;99.83;96193.56;111405;1244;24224;-75
2023/09/23 06:41:03;;;;;;;25.30;22.50;;;;;;;16.57;100.00;96196.61;111396;1244;22515;-76
2023/09/23 06:43:32;;;;;;;26.80;23.70;;;;;;;16.48;100.00;96200.17;111409;1244;34855;-75
2023/09/23 06:46:01;;;;;;;24.70;22.00;;;;;;;16.38;100.00;96203.30;111391;1244;22644;-76
2023/09/23 06:48:30;;;;;;;23.80;20.50;;;;;;;16.32;100.00;96210.58;111395;1244;24962;-76
2023/09/23 06:51:00;;;;;;;22.60;19.90;;;;;;;16.29;100.00;96215.56;111415;1244;22508;-76
2023/09/23 06:53:29;;;;;;;22.70;19.80;;;;;;;16.29;100.00;96222.14;111362;1244;22493;-76
2023/09/23 06:56:00;;;;;;;22.90;20.00;;;;;;;16.30;100.00;96227.08;111409;1244;22494;-76
2023/09/23 06:58:28;;;;;;;20.40;18.20;;;;;;;16.34;100.00;96235.29;111394;1244;23922;-76
2023/09/23 07:00:57;;;;;;;20.80;18.60;;;;;;;16.38;100.00;96237.55;111416;1244;22573;-76
2023/09/23 07:03:26;;;;;;;21.70;18.90;;;;;;;16.37;100.00;96237.20;111407;1244;22577;-75
2023/09/23 07:05:55;;;;;;;22.90;18.00;;;;;;;16.35;100.00;96242.86;111418;1244;23113;-76
2023/09/23 07:08:24;;;;;;;19.60;17.30;;;;;;;16.36;100.00;96247.05;111440;1244;22562;-76
2023/09/23 07:10:54;;;;;;;18.30;16.30;;;;;;;16.37;100.00;96241.65;111438;1244;22530;-76
2023/09/23 07:13:23;;;;;;;17.90;15.60;;;;;;;16.37;100.00;96247.60;111413;1244;22534;-75
2023/09/23 07:15:51;;;;;;;18.70;16.20;;;;;;;16.40;100.00;96251.85;111397;1244;24280;-76
2023/09/23 07:18:20;;;;;;;19.20;15.90;;;;;;;16.50;100.00;96251.92;111368;1240;24169;-76
2023/09/23 07:20:49;;;;;;;19.10;16.70;;;;;;;16.60;100.00;96260.64;111407;1244;22511;-76
2023/09/23 07:23:17;;;;;;;18.90;16.90;;;;;;;16.69;100.00;96269.04;111423;1244;22498;-76
2023/09/23 07:25:46;;;;;;;19.90;16.50;;;;;;;16.77;100.00;96265.13;111405;1244;22491;-76
2023/09/23 07:28:15;;;;;;;17.60;15.70;;;;;;;16.82;100.00;96268.68;111287;1244;23666;-76
2023/09/23 07:30:45;;;;;;;17.10;15.00;;;;;;;16.82;100.00;96268.05;111288;1244;24223;-76
2023/09/23 07:33:17;;;;;;;17.70;15.60;;;;;;;16.80;100.00;96258.43;111410;1243;22850;-76
2023/09/23 07:35:46;;;;;;;21.40;19.10;;;;;;;16.82;100.00;96257.34;111424;1244;22535;-76
2023/09/23 07:38:22;;;;;;;18.80;16.80;;;;;;;16.86;100.00;96261.17;111137;1244;335192;-76
2023/09/23 07:40:54;;;;;;;23.20;18.10;;;;;;;16.87;100.00;96259.52;111410;1244;22485;-76
2023/09/23 07:43:23;;;;;;;20.90;18.00;;;;;;;16.87;100.00;96248.59;111623;1244;25090;-76
2023/09/23 07:45:54;;;;;;;20.30;18.10;;;;;;;16.85;100.00;96245.22;111396;1244;23699;-76
2023/09/23 07:48:22;;;;;;;23.70;19.30;;;;;;;16.84;100.00;96245.89;111211;1244;22544;-76
2023/09/23 07:50:53;;;;;;;20.10;18.00;;;;;;;16.86;100.00;96245.42;111164;1243;22444;-76
2023/09/23 07:53:22;;;;;;;20.50;18.30;;;;;;;16.89;100.00;96252.97;111242;1244;22495;-76
2023/09/23 07:55:51;;;;;;;22.60;18.60;;;;;;;16.94;100.00;96246.70;111454;1244;22562;-76
2023/09/23 07:58:19;;;;;;;22.40;18.80;;;;;;;16.99;100.00;96242.05;111461;1244;22495;-76
2023/09/23 08:00:48;;;;;;;22.30;19.00;;;;;;;17.04;100.00;96245.77;111460;1244;23537;-75
2023/09/23 08:03:16;;;;;;;20.20;17.60;;;;;;;17.05;100.00;96251.09;111460;1244;22520;-75
2023/09/23 08:05:48;;;;;;;13.90;12.20;;;;;;;17.02;100.00;96256.17;111465;1244;22531;-75
2023/09/23 08:08:17;;;;;;;10.80;9.70;;;;;;;16.94;100.00;96261.63;111443;1244;22503;-75
2023/09/23 08:10:49;;;;;;;11.20;8.70;;;;;;;16.83;100.00;96260.29;111469;1244;22513;-75
2023/09/23 08:13:19;;;;;;;9.00;8.10;;;;;;;16.75;100.00;96255.34;111441;1244;22492;-75
2023/09/23 08:15:48;;;;;;;10.00;8.90;;;;;;;16.71;100.00;96259.74;111464;1244;22501;-75
2023/09/23 08:18:17;;;;;;;8.20;6.80;;;;;;;16.67;100.00;96265.34;111439;1244;22491;-75
2023/09/23 08:20:46;;;;;;;7.90;7.10;;;;;;;16.65;100.00;96281.87;111430;1244;22507;-75
2023/09/23 08:23:15;;;;;;;9.10;7.70;;;;;;;16.65;100.00;96294.56;111433;1244;22495;-75
2023/09/23 08:25:44;;;;;;;11.50;9.40;;;;;;;16.63;100.00;96300.09;111412;1244;25097;-75
2023/09/23 08:28:14;;;;;;;10.10;8.80;;;;;;;16.60;100.00;96300.08;111478;1244;22659;-75
2023/09/23 08:30:47;;;;;;;10.70;9.40;;;;;;;16.52;100.00;96299.95;111307;1244;26443;-75
2023/09/23 08:33:16;;;;;;;10.70;9.00;;;;;;;16.43;100.00;96300.25;111419;1244;25370;-75
2023/09/23 08:35:48;;;;;;;9.70;8.70;;;;;;;16.46;100.00;96298.56;111465;1244;25457;-76
2023/09/23 08:38:18;;;;;;;10.20;9.10;;;;;;;16.44;100.00;96301.21;111477;1244;22501;-75
2023/09/23 08:40:45;;;;;;;;;;;;;;;16.42;100.00;96303.81;111495;1244;24194;-75
2023/09/23 08:43:18;;;;;;;10.20;9.20;;;;;;;16.41;100.00;96307.45;111421;1244;24007;-75
2023/09/23 08:45:47;;;;;;;9.90;8.90;;;;;;;16.40;100.00;96307.10;111458;1244;22535;-76
2023/09/23 08:48:17;;;;;;;10.90;9.70;;;;;;;16.44;100.00;96308.04;111449;1244;24987;-75
2023/09/23 08:50:51;;;;;;;10.20;9.20;;;;;;;16.47;100.00;96314.37;111466;1243;22494;-75
2023/09/23 08:53:21;;;;;;;11.30;10.20;;;;;;;16.41;100.00;96318.77;111437;1244;22492;-75
2023/09/23 08:55:52;;;;;;;12.10;10.90;;;;;;;16.33;100.00;96320.48;111438;1244;22678;-75
2023/09/23 08:58:23;;;;;;;12.00;10.80;;;;;;;16.26;100.00;96320.00;111453;1244;25235;-75
2023/09/23 09:00:54;;;;;;;12.50;11.30;;;;;;;16.17;100.00;96319.11;111451;1244;22534;-76
2023/09/23 09:03:23;;;;;;;14.70;13.30;;;;;;;16.13;100.00;96323.77;111483;1244;23267;-75
2023/09/23 09:05:53;;;;;;;13.00;11.70;;;;;;;16.09;100.00;96331.15;111490;1244;25431;-76
2023/09/23 09:08:22;;;;;;;13.70;12.30;;;;;;;16.08;100.00;96329.77;111475;1244;22524;-76
2023/09/23 09:10:51;;;;;;;15.00;13.50;;;;;;;16.09;100.00;96333.85;111460;1244;22502;-75
2023/09/23 09:13:20;;;;;;;13.50;12.30;;;;;;;16.07;100.00;96331.84;111428;1244;22494;-74
2023/09/23 09:15:48;;;;;;;12.90;11.70;;;;;;;16.00;100.00;96336.32;111457;1244;22521;-75
2023/09/23 09:18:17;;;;;;;13.00;11.70;;;;;;;15.95;100.00;96342.14;111450;1244;22581;-75
2023/09/23 09:20:45;;;;;;;13.00;11.70;;;;;;;15.93;100.00;96341.29;111452;1244;23308;-76
2023/09/23 09:23:16;;;;;;;13.80;12.50;;;;;;;15.89;100.00;96342.58;111439;1244;22509;-76
2023/09/23 09:25:54;;;;;;;12.70;11.40;;;;;;;15.85;100.00;96345.23;111414;1244;25219;-77
2023/09/23 09:28:23;;;;;;;12.00;10.90;;;;;;;15.84;100.00;96341.52;111504;1244;22498;-77
2023/09/23 09:30:56;;;;;;;10.60;9.60;;;;;;;15.90;100.00;96348.97;111541;1244;23946;-77
2023/09/23 09:33:27;;;;;;;12.40;11.20;;;;;;;15.95;100.00;96361.70;111515;1244;22501;-76
2023/09/23 09:35:56;;;;;;;12.30;11.00;;;;;;;15.97;100.00;96365.60;111555;1244;22512;-77
2023/09/23 09:38:25;;;;;;;12.90;11.60;;;;;;;16.01;100.00;96370.27;111555;1244;24297;-77
2023/09/23 09:40:56;;;;;;;;;;;;;;;16.01;100.00;96366.61;111570;1244;22538;-77
2023/09/23 09:43:26;;;;;;;12.80;11.40;;;;;;;15.99;100.00;96360.73;111500;1244;22499;-77
2023/09/23 09:45:56;;;;;;;11.30;8.90;;;;;;;16.05;100.00;96359.34;111619;1244;25403;-77
2023/09/23 09:48:26;;;;;;;10.10;8.50;;;;;;;16.15;100.00;96367.87;111599;1244;25257;-77
2023/09/23 09:50:55;;;;;;;9.50;8.50;;;;;;;16.27;100.00;96369.11;111590;1244;22953;-77
2023/09/23 09:53:25;;;;;;;11.10;9.30;;;;;;;16.36;100.00;96374.01;111584;1244;23777;-76
2023/09/23 09:55:57;;;;;;;10.90;9.90;;;;;;;16.39;100.00;96377.77;111597;1244;22498;-77
2023/09/23 09:58:37;;;;;;;10.40;9.30;;;;;;;16.38;100.00;96381.36;111562;1244;22627;-77
2023/09/23 10:01:11;;;;;;;9.00;8.10;;;;;;;16.35;100.00;96370.89;111573;1244;25289;-77
2023/09/23 10:03:44;;;;;;;6.20;5.00;;;;;;;16.35;100.00;96372.81;111557;1244;22510;-76
2023/09/23 10:06:22;;;;;;;5.20;4.20;;;;;;;16.39;100.00;96372.42;111638;1244;22494;-77
2023/09/23 10:08:52;;;;;;;5.60;4.80;;;;;;;16.43;100.00;96371.77;111608;1244;22523;-77
2023/09/23 10:11:35;;;;;;;4.80;2.60;;;;;;;16.41;100.00;96365.95;111603;1244;23229;-76
2023/09/23 10:14:16;;;;;;;2.50;1.90;;;;;;;16.28;100.00;96366.57;111604;1244;22639;-76
2023/09/23 10:16:50;;;;;;;2.00;1.70;;;;;;;16.10;100.00;96362.91;111565;1244;24133;-76
2023/09/23 10:19:32;;;;;;;2.70;1.70;;;;;;;16.01;100.00;96359.05;111607;1244;22707;-77
2023/09/23 10:22:17;;;;;;;1.30;1.20;;;;;;;16.10;100.00;96361.47;111613;1244;23271;-77
2023/09/23 10:24:47;;;;;;;1.60;1.50;;;;;;;16.10;100.00;96357.89;111568;1244;22513;-77
2023/09/23 10:27:21;;;;;;;1.60;1.50;;;;;;;16.08;100.00;96354.97;111616;1244;22503;-77
2023/09/23 10:29:50;;;;;;;1.50;1.40;;;;;;;16.10;100.00;96359.08;111590;1244;24227;-77
2023/09/23 10:32:19;;;;;;;1.30;1.00;;;;;;;16.15;100.00;96364.19;111579;1244;24752;-77
2023/09/23 10:34:49;;;;;;;1.10;1.00;;;;;;;16.11;100.00;96357.38;111580;1244;22488;-76
2023/09/23 10:37:32;;;;;;;0.80;0.80;;;;;;;16.10;100.00;96354.23;111580;1244;22488;-76
2023/09/23 10:40:11;;;;;;;0.70;0.70;;;;;;;16.08;100.00;96348.64;111592;1244;26416;-76
2023/09/23 10:42:40;;;;;;;;;;;;;;;16.09;100.00;96356.98;111579;1234;24382;-77
2023/09/23 10:45:11;;;;;;;0.80;0.60;;;;;;;16.14;100.00;96361.77;111572;1244;25408;-76
2023/09/23 10:47:40;;;;;;;0.50;0.30;;;;;;;16.18;100.00;96361.02;111543;1244;22672;-77
2023/09/23 10:50:10;;;;;;;0.70;0.50;;;;;;;16.12;100.00;96356.59;111587;1244;22515;-77
2023/09/23 10:52:42;;;;;;;1.40;0.50;;;;;;;16.09;100.00;96356.77;111581;1244;22533;-77
2023/09/23 10:55:11;;;;;;;0.60;0.60;;;;;;;16.11;100.00;96357.66;111533;1244;22605;-76
2023/09/23 10:57:40;;;;;;;1.20;1.10;;;;;;;16.15;100.00;96366.10;111549;1244;24309;-77
2023/09/23 11:00:16;;;;;;;2.60;1.70;;;;;;;16.21;100.00;96362.60;111579;1244;23811;-77
2023/09/23 11:02:50;;;;;;;2.60;1.80;;;;;;;16.28;100.00;96364.11;111644;1244;22673;-76
2023/09/23 11:05:21;;;;;;;1.90;1.70;;;;;;;16.34;100.00;96363.54;111568;1244;22510;-76
2023/09/23 11:07:54;;;;;;;2.50;2.10;;;;;;;16.33;100.00;96364.54;111546;1244;22513;-76
2023/09/23 11:10:27;;;;;;;2.50;1.50;;;;;;;16.29;100.00;96358.25;111583;1244;22617;-77
2023/09/23 11:12:56;;;;;;;1.50;1.40;;;;;;;16.23;100.00;96347.94;111600;1244;22660;-77
2023/09/23 11:15:26;;;;;;;1.40;1.30;;;;;;;16.17;100.00;96343.16;111568;1244;22501;-77
2023/09/23 11:17:56;;;;;;;2.00;1.40;;;;;;;16.12;100.00;96336.55;111529;1244;22489;-76
2023/09/23 11:20:34;;;;;;;1.50;1.40;;;;;;;16.09;100.00;96329.19;111433;1244;22539;-76
2023/09/23 11:23:06;;;;;;;2.00;1.50;;;;;;;16.09;100.00;96339.95;111504;1244;22470;-76
2023/09/23 11:25:39;;;;;;;1.80;1.20;;;;;;;16.13;100.00;96346.66;111602;1244;27481;-76
2023/09/23 11:28:07;;;;;;;1.90;1.10;;;;;;;16.21;100.00;96352.16;111591;1244;22554;-76
2023/09/23 11:30:39;;;;;;;1.60;1.50;;;;;;;16.31;100.00;96341.16;111570;1244;22478;-76